createdAt,value
2023-04-28T00:00:11.822Z,2.80
2023-04-28T00:02:39.871Z,3.10
2023-04-28T00:05:08.998Z,2.87
2023-04-28T00:07:38.429Z,3.00
2023-04-28T00:10:07.908Z,2.73
2023-04-28T00:12:35.837Z,2.43
2023-04-28T00:15:04.034Z,2.70
2023-04-28T00:17:32.048Z,2.23
2023-04-28T00:20:00.090Z,2.97
2023-04-28T00:22:28.034Z,2.73
2023-04-28T00:24:57.233Z,2.87
2023-04-28T00:27:25.149Z,2.60
2023-04-28T00:29:53.334Z,3.03
2023-04-28T00:32:21.440Z,3.20
2023-04-28T00:34:49.327Z,2.80
2023-04-28T00:37:17.183Z,2.70
2023-04-28T00:39:47.000Z,2.73
2023-04-28T00:42:17.199Z,2.23
2023-04-28T00:44:45.149Z,2.60
2023-04-28T00:47:13.062Z,2.67
2023-04-28T00:49:41.081Z,2.60
2023-04-28T00:52:08.970Z,2.37
2023-04-28T00:54:37.546Z,2.93
2023-04-28T00:57:05.695Z,2.47
2023-04-28T00:59:36.592Z,2.57
2023-04-28T01:02:06.458Z,2.67
2023-04-28T01:04:36.125Z,2.33
2023-04-28T01:07:04.851Z,2.67
2023-04-28T01:09:32.738Z,2.77
2023-04-28T01:12:00.917Z,2.67
2023-04-28T01:14:44.168Z,2.57
2023-04-28T01:17:12.887Z,2.97
2023-04-28T01:19:41.247Z,3.30
2023-04-28T01:22:10.612Z,3.10
2023-04-28T01:24:40.102Z,2.67
2023-04-28T01:27:09.119Z,2.40
2023-04-28T01:29:39.202Z,3.00
2023-04-28T01:32:07.238Z,3.00
2023-04-28T01:34:35.612Z,3.20
2023-04-28T01:37:06.917Z,2.97
2023-04-28T01:39:35.022Z,2.50
2023-04-28T01:42:06.425Z,3.13
2023-04-28T01:44:35.047Z,2.53
2023-04-28T01:47:02.907Z,4.57
2023-04-28T01:49:30.780Z,3.13
2023-04-28T01:51:58.682Z,3.43
2023-04-28T01:54:27.443Z,3.13
2023-04-28T01:56:55.411Z,3.30
2023-04-28T01:59:24.782Z,2.93
2023-04-28T02:01:52.753Z,3.67
2023-04-28T02:04:20.757Z,3.30
2023-04-28T02:06:49.037Z,3.20
2023-04-28T02:09:16.948Z,3.40
2023-04-28T02:11:45.285Z,4.27
2023-04-28T02:14:13.255Z,2.93
2023-04-28T02:16:42.490Z,4.10
2023-04-28T02:19:12.525Z,3.40
2023-04-28T02:21:40.388Z,3.40
2023-04-28T02:24:09.471Z,3.80
2023-04-28T02:26:37.354Z,3.67
2023-04-28T02:29:05.270Z,3.83
2023-04-28T02:31:33.981Z,4.37
2023-04-28T02:34:03.225Z,3.97
2023-04-28T02:36:32.451Z,4.13
2023-04-28T02:39:00.361Z,3.80
2023-04-28T02:41:31.015Z,3.80
2023-04-28T02:43:59.010Z,3.67
2023-04-28T02:46:26.933Z,3.63
2023-04-28T02:48:54.831Z,4.53
2023-04-28T02:51:24.377Z,4.80
2023-04-28T02:53:52.387Z,4.50
2023-04-28T02:56:20.487Z,4.23
2023-04-28T02:58:48.384Z,4.33
2023-04-28T03:01:16.733Z,4.50
2023-04-28T03:03:44.821Z,4.23
2023-04-28T03:06:13.259Z,4.10
2023-04-28T03:08:42.674Z,4.90
2023-04-28T03:11:11.051Z,4.63
2023-04-28T03:13:39.293Z,4.40
2023-04-28T03:16:08.815Z,4.50
2023-04-28T03:18:36.713Z,4.73
2023-04-28T03:21:05.450Z,5.23
2023-04-28T03:23:33.338Z,4.97
2023-04-28T03:26:02.639Z,6.87
2023-04-28T03:28:30.621Z,4.60
2023-04-28T03:31:00.542Z,5.10
2023-04-28T03:33:28.446Z,4.87
2023-04-28T03:35:57.003Z,6.00
2023-04-28T03:38:24.902Z,5.40
2023-04-28T03:40:53.176Z,6.23
2023-04-28T03:43:41.045Z,5.30
2023-04-28T03:46:22.226Z,5.53
2023-04-28T03:48:50.653Z,5.53
2023-04-28T03:51:20.712Z,6.07
2023-04-28T03:53:48.977Z,5.60
2023-04-28T03:56:17.038Z,6.40
2023-04-28T03:58:46.314Z,6.27
2023-04-28T04:01:14.554Z,6.53
2023-04-28T04:03:42.911Z,6.40
2023-04-28T04:06:11.033Z,5.90
2023-04-28T04:08:39.344Z,6.47
2023-04-28T04:11:07.301Z,5.37
2023-04-28T04:13:35.721Z,5.90
2023-04-28T04:16:09.480Z,6.07
2023-04-28T04:18:37.889Z,5.90
2023-04-28T04:21:21.199Z,5.63
2023-04-28T04:23:51.467Z,5.97
2023-04-28T04:26:19.444Z,5.60
2023-04-28T04:28:49.574Z,5.03
2023-04-28T04:31:19.473Z,5.30
2023-04-28T04:33:48.330Z,4.87
2023-04-28T04:36:17.014Z,4.90
2023-04-28T04:38:44.927Z,5.03
2023-04-28T04:41:20.946Z,5.70
2023-04-28T04:43:50.070Z,5.50
2023-04-28T04:46:20.142Z,6.47
2023-04-28T04:48:48.173Z,4.77
2023-04-28T04:51:16.170Z,5.10
2023-04-28T04:53:44.087Z,4.63
2023-04-28T04:56:12.193Z,4.67
2023-04-28T04:58:40.263Z,4.87
2023-04-28T05:01:27.216Z,4.60
2023-04-28T05:03:55.302Z,5.20
2023-04-28T05:06:23.793Z,4.47
2023-04-28T05:08:51.809Z,5.13
2023-04-28T05:11:20.023Z,5.30
2023-04-28T05:13:48.175Z,5.67
2023-04-28T05:16:16.743Z,5.23
2023-04-28T05:19:01.166Z,5.40
2023-04-28T05:21:29.536Z,6.97
2023-04-28T05:23:57.433Z,5.63
2023-04-28T05:26:26.089Z,5.40
2023-04-28T05:28:56.711Z,5.63
2023-04-28T05:31:24.625Z,5.67
2023-04-28T05:33:53.467Z,5.47
2023-04-28T05:36:22.650Z,5.37
2023-04-28T05:38:51.379Z,5.83
2023-04-28T05:41:20.013Z,5.83
2023-04-28T05:43:50.943Z,5.90
2023-04-28T05:46:29.986Z,5.20
2023-04-28T05:49:00.519Z,5.20
2023-04-28T05:51:34.706Z,5.93
2023-04-28T05:54:03.444Z,7.00
2023-04-28T05:56:32.901Z,5.70
2023-04-28T05:59:04.138Z,7.03
2023-04-28T06:01:32.478Z,5.80
2023-04-28T06:04:01.680Z,6.37
2023-04-28T06:06:29.857Z,5.97
2023-04-28T06:08:59.241Z,7.03
2023-04-28T06:11:27.422Z,6.70
2023-04-28T06:13:55.811Z,7.00
2023-04-28T06:16:24.214Z,6.40
2023-04-28T06:18:53.264Z,7.00
2023-04-28T06:21:22.122Z,6.77
2023-04-28T06:23:50.004Z,6.63
2023-04-28T06:26:19.719Z,6.73
2023-04-28T06:28:47.683Z,7.33
2023-04-28T06:31:15.716Z,6.90
2023-04-28T06:33:46.373Z,7.00
2023-04-28T06:36:16.746Z,6.83
2023-04-28T06:38:45.135Z,7.10
2023-04-28T06:41:13.129Z,7.53
2023-04-28T06:43:45.025Z,6.90
2023-04-28T06:46:18.095Z,7.50
2023-04-28T06:48:46.025Z,7.70
2023-04-28T06:51:16.308Z,6.60
2023-04-28T06:53:44.570Z,7.03
2023-04-28T06:56:12.453Z,7.23
2023-04-28T06:58:40.492Z,7.50
2023-04-28T07:01:09.813Z,7.03
2023-04-28T07:03:38.934Z,7.40
2023-04-28T07:06:07.491Z,7.53
2023-04-28T07:08:36.438Z,6.97
2023-04-28T07:11:05.150Z,7.50
2023-04-28T07:13:33.264Z,7.97
2023-04-28T07:16:01.365Z,8.03
2023-04-28T07:18:30.624Z,7.40
2023-04-28T07:20:58.823Z,7.30
2023-04-28T07:23:26.752Z,7.60
2023-04-28T07:25:54.836Z,8.73
2023-04-28T07:28:23.028Z,7.93
2023-04-28T07:30:51.227Z,8.07
2023-04-28T07:33:19.192Z,7.83
2023-04-28T07:35:49.481Z,8.30
2023-04-28T07:38:18.453Z,8.37
2023-04-28T07:40:46.713Z,9.30
2023-04-28T07:43:14.775Z,8.17
2023-04-28T07:45:45.579Z,9.27
2023-04-28T07:48:13.750Z,8.50
2023-04-28T07:50:41.694Z,9.07
2023-04-28T07:53:11.408Z,9.30
2023-04-28T07:55:41.882Z,8.60
2023-04-28T07:58:10.510Z,8.77
2023-04-28T08:00:40.962Z,8.20
2023-04-28T08:03:09.366Z,8.67
2023-04-28T08:05:37.633Z,8.17
2023-04-28T08:08:06.102Z,8.63
2023-04-28T08:10:35.380Z,9.13
2023-04-28T08:13:03.528Z,9.70
2023-04-28T08:15:31.887Z,9.60
2023-04-28T08:18:00.018Z,8.70
2023-04-28T08:20:27.991Z,9.10
2023-04-28T08:22:55.853Z,8.60
2023-04-28T08:25:24.061Z,8.83
2023-04-28T08:27:55.353Z,9.53
2023-04-28T08:30:24.785Z,9.20
2023-04-28T08:32:53.128Z,9.43
2023-04-28T08:35:21.074Z,9.03
2023-04-28T08:37:49.671Z,9.13
2023-04-28T08:40:18.232Z,10.10
2023-04-28T08:42:46.749Z,9.70
2023-04-28T08:45:16.644Z,10.17
2023-04-28T08:47:47.580Z,9.60
2023-04-28T08:50:17.098Z,10.23
2023-04-28T08:52:45.070Z,9.97
2023-04-28T08:55:13.898Z,9.77
2023-04-28T08:57:45.847Z,9.60
2023-04-28T09:00:16.445Z,9.80
2023-04-28T09:02:44.701Z,9.60
2023-04-28T09:05:14.639Z,9.63
2023-04-28T09:07:46.325Z,10.63
2023-04-28T09:10:23.069Z,10.07
2023-04-28T09:12:55.119Z,10.40
2023-04-28T09:15:34.434Z,10.27
2023-04-28T09:18:04.088Z,10.47
2023-04-28T09:20:34.133Z,10.17
2023-04-28T09:23:17.449Z,9.97
2023-04-28T09:26:06.450Z,9.33
2023-04-28T09:28:36.686Z,9.53
2023-04-28T09:31:06.225Z,10.37
2023-04-28T09:33:34.337Z,9.90
2023-04-28T09:36:02.262Z,10.90
2023-04-28T09:38:30.395Z,9.73
2023-04-28T09:41:01.339Z,10.20
2023-04-28T09:43:32.283Z,9.97
2023-04-28T09:46:03.460Z,9.77
2023-04-28T09:48:35.502Z,10.03
2023-04-28T09:51:05.989Z,9.50
2023-04-28T09:53:35.536Z,10.17
2023-04-28T09:56:06.416Z,10.53
2023-04-28T09:58:41.284Z,11.37
2023-04-28T10:01:12.720Z,11.20
2023-04-28T10:03:45.300Z,9.57
2023-04-28T10:06:13.448Z,9.70
2023-04-28T10:08:41.954Z,10.03
2023-04-28T10:11:10.899Z,10.67
2023-04-28T10:13:39.361Z,10.03
2023-04-28T10:16:09.318Z,9.83
2023-04-28T10:18:38.996Z,10.17
2023-04-28T10:21:09.489Z,9.50
2023-04-28T10:24:07.941Z,9.47
2023-04-28T10:27:09.253Z,9.97
2023-04-28T10:29:37.999Z,9.93
2023-04-28T10:32:28.614Z,9.37
2023-04-28T10:35:43.207Z,9.73
2023-04-28T10:38:14.745Z,10.67
2023-04-28T10:40:44.504Z,10.70
2023-04-28T10:43:13.817Z,10.47
2023-04-28T10:46:06.129Z,11.57
2023-04-28T10:49:08.183Z,10.47
2023-04-28T10:51:37.661Z,11.13
2023-04-28T10:54:20.270Z,11.97
2023-04-28T10:57:20.549Z,12.10
2023-04-28T10:59:50.251Z,11.00
2023-04-28T11:02:44.782Z,11.50
2023-04-28T11:05:18.981Z,11.17
2023-04-28T11:08:35.185Z,11.47
2023-04-28T11:11:28.092Z,10.97
2023-04-28T11:14:17.315Z,12.03
2023-04-28T11:16:53.677Z,11.37
2023-04-28T11:19:24.587Z,12.87
2023-04-28T11:21:54.960Z,11.80
2023-04-28T11:24:25.480Z,11.27
2023-04-28T11:26:53.753Z,12.33
2023-04-28T11:29:34.096Z,12.73
2023-04-28T11:32:05.027Z,12.03
2023-04-28T11:34:33.507Z,12.13
2023-04-28T11:37:01.863Z,12.07
2023-04-28T11:39:32.791Z,12.70
2023-04-28T11:42:03.148Z,14.37
2023-04-28T11:44:32.889Z,13.33
2023-04-28T11:47:04.959Z,13.73
2023-04-28T11:49:43.485Z,15.20
2023-04-28T11:52:13.227Z,16.50
2023-04-28T11:54:43.317Z,14.57
2023-04-28T11:57:20.102Z,14.70
2023-04-28T11:59:49.688Z,14.40
2023-04-28T12:02:29.218Z,14.30
2023-04-28T12:04:57.703Z,13.87
2023-04-28T12:07:26.165Z,14.57
2023-04-28T12:10:14.200Z,15.60
2023-04-28T12:12:51.147Z,14.13
2023-04-28T12:15:21.880Z,14.57
2023-04-28T12:17:52.194Z,15.07
2023-04-28T12:20:36.816Z,14.57
2023-04-28T12:23:07.382Z,14.07
2023-04-28T12:25:44.481Z,13.60
2023-04-28T12:28:12.885Z,13.97
2023-04-28T12:30:42.494Z,13.13
2023-04-28T12:33:25.553Z,14.53
2023-04-28T12:35:54.890Z,14.33
2023-04-28T12:38:22.969Z,13.63
2023-04-28T12:40:50.928Z,14.37
2023-04-28T12:43:19.381Z,13.30
2023-04-28T12:45:47.697Z,13.03
2023-04-28T12:48:15.696Z,12.10
2023-04-28T12:50:45.274Z,13.23
2023-04-28T12:53:13.650Z,11.40
2023-04-28T12:55:42.144Z,10.97
2023-04-28T12:58:10.114Z,11.97
2023-04-28T13:00:38.298Z,6.80
2023-04-28T13:03:06.777Z,7.03
2023-04-28T13:05:35.229Z,6.07
2023-04-28T13:08:05.507Z,6.57
2023-04-28T13:10:33.398Z,6.30
2023-04-28T13:13:01.257Z,6.53
2023-04-28T13:15:30.106Z,7.13
2023-04-28T13:17:59.729Z,7.70
2023-04-28T13:20:27.827Z,7.20
2023-04-28T13:22:58.670Z,8.07
2023-04-28T13:25:27.950Z,8.17
2023-04-28T13:27:56.614Z,8.30
2023-04-28T13:30:24.561Z,8.90
2023-04-28T13:32:53.517Z,8.70
2023-04-28T13:35:22.401Z,8.67
2023-04-28T13:37:50.426Z,8.97
2023-04-28T13:40:19.104Z,8.53
2023-04-28T13:42:48.368Z,9.17
2023-04-28T13:45:17.845Z,9.87
2023-04-28T13:47:46.122Z,10.20
2023-04-28T13:50:14.434Z,9.43
2023-04-28T13:52:42.434Z,9.97
2023-04-28T13:55:11.028Z,11.20
2023-04-28T13:57:39.846Z,9.70
2023-04-28T14:00:11.495Z,10.27
2023-04-28T14:02:39.762Z,10.90
2023-04-28T14:05:09.311Z,10.87
2023-04-28T14:07:37.649Z,10.97
2023-04-28T14:10:06.240Z,10.50
2023-04-28T14:12:34.195Z,11.27
2023-04-28T14:15:02.159Z,11.17
2023-04-28T14:17:32.464Z,11.07
2023-04-28T14:20:01.404Z,10.93
2023-04-28T14:22:29.446Z,10.97
2023-04-28T14:24:59.436Z,10.33
2023-04-28T14:27:29.366Z,10.90
2023-04-28T14:29:57.656Z,10.13
2023-04-28T14:32:25.916Z,10.43
2023-04-28T14:34:55.149Z,10.43
2023-04-28T14:37:23.457Z,11.27
2023-04-28T14:39:51.466Z,11.90
2023-04-28T14:42:20.059Z,11.83
2023-04-28T14:44:48.350Z,11.03
2023-04-28T14:47:17.260Z,12.27
2023-04-28T14:49:45.359Z,12.23
2023-04-28T14:52:14.607Z,12.77
2023-04-28T14:54:43.266Z,12.60
2023-04-28T14:57:11.199Z,12.53
2023-04-28T14:59:39.101Z,12.43
2023-04-28T15:02:07.763Z,12.57
2023-04-28T15:04:36.025Z,13.30
2023-04-28T15:07:03.965Z,13.13
2023-04-28T15:09:33.274Z,14.33
2023-04-28T15:12:01.182Z,13.50
2023-04-28T15:14:29.078Z,13.30
2023-04-28T15:16:57.458Z,14.23
2023-04-28T15:19:25.872Z,14.67
2023-04-28T15:21:53.814Z,14.60
2023-04-28T15:24:22.020Z,15.17
2023-04-28T15:26:51.488Z,14.60
2023-04-28T15:29:19.833Z,15.83
2023-04-28T15:31:47.900Z,15.80
2023-04-28T15:34:15.969Z,16.23
2023-04-28T15:36:46.898Z,16.70
2023-04-28T15:39:16.154Z,16.67
2023-04-28T15:41:44.161Z,17.50
2023-04-28T15:44:13.396Z,18.20
2023-04-28T15:46:41.377Z,17.60
2023-04-28T15:49:09.944Z,16.77
2023-04-28T15:51:38.217Z,17.23
2023-04-28T15:54:06.172Z,16.27
2023-04-28T15:56:34.905Z,16.87
2023-04-28T15:59:03.226Z,16.57
2023-04-28T16:01:33.175Z,14.33
2023-04-28T16:04:01.393Z,14.30
2023-04-28T16:06:30.283Z,14.57
2023-04-28T16:08:58.182Z,14.63
2023-04-28T16:11:26.138Z,13.37
2023-04-28T16:13:54.074Z,14.67
2023-04-28T16:16:23.241Z,13.90
2023-04-28T16:18:52.468Z,14.93
2023-04-28T16:21:20.357Z,14.97
2023-04-28T16:23:48.283Z,15.17
2023-04-28T16:26:16.184Z,15.57
2023-04-28T16:28:44.450Z,15.80
2023-04-28T16:31:12.461Z,15.00
2023-04-28T16:33:40.434Z,15.03
2023-04-28T16:36:09.939Z,14.23
2023-04-28T16:38:38.713Z,14.23
2023-04-28T16:41:06.841Z,13.63
2023-04-28T16:43:36.187Z,14.33
2023-04-28T16:46:04.368Z,14.57
2023-04-28T16:48:32.369Z,14.80
2023-04-28T16:51:00.420Z,13.67
2023-04-28T16:53:29.655Z,13.43
2023-04-28T16:55:57.599Z,13.30
2023-04-28T16:58:26.164Z,14.43
2023-04-28T17:00:54.218Z,13.83
2023-04-28T17:03:22.335Z,13.47
2023-04-28T17:05:50.431Z,14.70
2023-04-28T17:08:18.395Z,15.60
2023-04-28T17:10:48.190Z,15.10
2023-04-28T17:13:16.093Z,15.80
2023-04-28T17:15:43.976Z,17.07
2023-04-28T17:18:11.831Z,15.00
2023-04-28T17:20:40.920Z,16.13
2023-04-28T17:23:08.781Z,18.93
2023-04-28T17:25:39.372Z,15.37
2023-04-28T17:28:08.686Z,17.30
2023-04-28T17:30:37.589Z,16.83
2023-04-28T17:33:06.092Z,17.67
2023-04-28T17:35:34.051Z,16.00
2023-04-28T17:38:02.324Z,16.47
2023-04-28T17:40:30.255Z,15.30
2023-04-28T17:42:58.443Z,16.07
2023-04-28T17:45:27.815Z,15.77
2023-04-28T17:47:57.586Z,16.23
2023-04-28T17:50:25.771Z,16.40
2023-04-28T17:52:54.203Z,16.63
2023-04-28T17:55:23.399Z,15.93
2023-04-28T17:57:52.251Z,16.10
2023-04-28T18:00:20.922Z,16.30
2023-04-28T18:02:52.391Z,17.60
2023-04-28T18:05:23.007Z,17.37
2023-04-28T18:07:50.942Z,17.17
2023-04-28T18:10:19.222Z,16.90
2023-04-28T18:12:47.414Z,18.13
2023-04-28T18:15:15.421Z,17.43
2023-04-28T18:17:43.444Z,18.17
2023-04-28T18:20:13.876Z,17.53
2023-04-28T18:22:42.156Z,18.10
2023-04-28T18:25:12.381Z,17.77
2023-04-28T18:27:45.312Z,16.50
2023-04-28T18:30:13.904Z,17.43
2023-04-28T18:32:42.211Z,17.83
2023-04-28T18:35:11.667Z,18.43
2023-04-28T18:37:39.651Z,19.10
2023-04-28T18:40:08.065Z,17.53
2023-04-28T18:42:36.802Z,18.70
2023-04-28T18:45:05.853Z,19.60
2023-04-28T18:47:33.847Z,19.33
2023-04-28T18:50:02.455Z,18.77
2023-04-28T18:52:32.871Z,20.07
2023-04-28T18:55:00.791Z,18.47
2023-04-28T18:57:28.762Z,18.53
2023-04-28T18:59:59.657Z,19.37
2023-04-28T19:02:27.762Z,22.77
2023-04-28T19:04:56.953Z,20.43
2023-04-28T19:07:25.023Z,18.70
2023-04-28T19:09:58.579Z,18.87
2023-04-28T19:12:29.180Z,19.83
2023-04-28T19:14:57.113Z,18.50
2023-04-28T19:17:25.558Z,18.77
2023-04-28T19:19:56.968Z,18.27
2023-04-28T19:22:33.192Z,18.07
2023-04-28T19:25:04.181Z,18.57
2023-04-28T19:27:34.448Z,18.90
2023-04-28T19:30:03.360Z,18.63
2023-04-28T19:32:31.796Z,18.53
2023-04-28T19:35:00.290Z,19.83
2023-04-28T19:37:28.360Z,19.47
2023-04-28T19:39:56.370Z,20.53
2023-04-28T19:42:25.886Z,19.33
2023-04-28T19:44:56.439Z,19.83
2023-04-28T19:47:24.780Z,19.57
2023-04-28T19:49:53.327Z,21.43
2023-04-28T19:52:22.466Z,20.43
2023-04-28T19:54:51.463Z,20.87
2023-04-28T19:57:20.314Z,20.97
2023-04-28T19:59:50.384Z,20.83
2023-04-28T20:02:20.947Z,20.10
2023-04-28T20:04:50.375Z,19.47
2023-04-28T20:07:18.563Z,19.30
2023-04-28T20:09:47.059Z,20.10
2023-04-28T20:12:15.158Z,20.43
2023-04-28T20:14:43.359Z,20.73
2023-04-28T20:17:12.564Z,21.00
2023-04-28T20:19:40.793Z,20.33
2023-04-28T20:22:09.018Z,20.93
2023-04-28T20:24:39.309Z,21.37
2023-04-28T20:27:07.338Z,21.10
2023-04-28T20:29:35.640Z,21.77
2023-04-28T20:32:04.332Z,20.93
2023-04-28T20:34:34.220Z,19.87
2023-04-28T20:37:03.433Z,20.77
2023-04-28T20:39:31.520Z,20.30
2023-04-28T20:42:00.667Z,20.80
2023-04-28T20:44:28.538Z,21.00
2023-04-28T20:46:56.477Z,20.97
2023-04-28T20:49:25.060Z,20.13
2023-04-28T20:51:55.399Z,19.83
2023-04-28T20:54:23.682Z,19.37
2023-04-28T20:56:51.560Z,19.90
2023-04-28T20:59:19.419Z,20.03
2023-04-28T21:01:47.657Z,20.83
2023-04-28T21:04:15.804Z,20.53
2023-04-28T21:06:43.816Z,22.10
2023-04-28T21:09:13.906Z,20.77
2023-04-28T21:11:42.475Z,21.17
2023-04-28T21:14:10.560Z,22.60
2023-04-28T21:16:38.783Z,24.00
2023-04-28T21:19:07.455Z,22.73
2023-04-28T21:21:35.379Z,22.97
2023-04-28T21:24:03.270Z,20.77
2023-04-28T21:26:32.521Z,21.50
2023-04-28T21:29:01.421Z,21.00
2023-04-28T21:31:30.474Z,19.43
2023-04-28T21:33:58.765Z,20.67
2023-04-28T21:36:26.818Z,19.43
2023-04-28T21:38:54.816Z,21.37
2023-04-28T21:41:22.714Z,18.57
2023-04-28T21:43:52.301Z,18.93
2023-04-28T21:46:20.202Z,18.83
2023-04-28T21:48:48.631Z,19.10
2023-04-28T21:51:16.773Z,18.47
2023-04-28T21:53:44.636Z,19.03
2023-04-28T21:56:12.513Z,18.03
2023-04-28T21:58:40.605Z,19.10
2023-04-28T22:01:10.295Z,18.13
2023-04-28T22:03:39.328Z,18.77
2023-04-28T22:06:07.440Z,18.30
2023-04-28T22:08:35.914Z,18.17
2023-04-28T22:11:04.032Z,18.30
2023-04-28T22:13:31.934Z,19.03
2023-04-28T22:16:01.676Z,19.70
2023-04-28T22:18:31.278Z,17.47
2023-04-28T22:21:01.020Z,18.87
2023-04-28T22:23:31.718Z,18.67
2023-04-28T22:26:00.035Z,18.17
2023-04-28T22:28:27.922Z,17.63
2023-04-28T22:30:56.168Z,18.07
2023-04-28T22:33:24.105Z,18.90
2023-04-28T22:35:53.337Z,19.00
2023-04-28T22:38:21.629Z,18.20
2023-04-28T22:40:49.489Z,19.37
2023-04-28T22:43:17.517Z,18.70
2023-04-28T22:45:46.271Z,18.70
2023-04-28T22:48:14.571Z,18.30
2023-04-28T22:50:42.427Z,17.87
2023-04-28T22:53:11.624Z,17.67
2023-04-28T22:55:39.484Z,17.10
2023-04-28T22:58:07.618Z,18.50
2023-04-28T23:00:36.563Z,16.20
2023-04-28T23:03:05.027Z,17.50
2023-04-28T23:05:33.214Z,16.87
2023-04-28T23:08:01.452Z,15.70
2023-04-28T23:10:30.649Z,15.83
2023-04-28T23:12:58.524Z,14.60
2023-04-28T23:15:26.397Z,14.33
2023-04-28T23:17:54.439Z,13.67
2023-04-28T23:20:22.708Z,12.10
2023-04-28T23:22:52.420Z,12.97
2023-04-28T23:25:20.279Z,12.70
2023-04-28T23:27:49.939Z,12.73
2023-04-28T23:30:17.887Z,11.47
2023-04-28T23:32:45.833Z,11.40
2023-04-28T23:35:13.968Z,11.03
2023-04-28T23:37:42.039Z,11.70
2023-04-28T23:40:11.650Z,10.77
2023-04-28T23:42:39.519Z,11.53
2023-04-28T23:45:10.857Z,11.03
2023-04-28T23:47:38.853Z,11.07
2023-04-28T23:50:09.632Z,10.33
2023-04-28T23:52:38.625Z,10.73
2023-04-28T23:55:10.589Z,10.93
2023-04-28T23:57:38.862Z,11.33
